Time;durP1;ratioP1;P1;durP2;ratioP2;P2;SDS_P1;SDS_P2;PMS_P1;PMS_P2;Temp;Humidity;BMP_temperature;BMP_pressure;BME280_temperature;BME280_humidity;BME280_pressure;Samples;Min_cycle;Max_cycle;Signal;HPM_P1;HPM_P2
2022/08/28 00:02:05;;;;;;;4.82;2.22;;;22.70;77.10;;;;;;5037772;28;20057;-76
2022/08/28 00:04:31;;;;;;;4.78;1.77;;;22.60;77.60;;;;;;5051902;28;20393;-75
2022/08/28 00:06:57;;;;;;;6.57;2.10;;;22.70;77.30;;;;;;5047178;28;20029;-76
2022/08/28 00:09:23;;;;;;;6.47;2.03;;;22.80;77.10;;;;;;5032784;28;20029;-75
2022/08/28 00:11:49;;;;;;;4.32;1.95;;;22.90;76.50;;;;;;5034634;28;20100;-76
2022/08/28 00:14:17;;;;;;;7.18;2.20;;;22.80;76.80;;;;;;5052208;28;20109;-75
2022/08/28 00:16:44;;;;;;;4.22;1.90;;;22.70;77.20;;;;;;5046674;28;20425;-76
2022/08/28 00:19:11;;;;;;;7.60;2.30;;;22.80;76.90;;;;;;5052415;28;20061;-76
2022/08/28 00:21:36;;;;;;;6.85;2.33;;;22.90;76.60;;;;;;5048735;28;20030;-76
2022/08/28 00:24:02;;;;;;;8.38;2.28;;;22.70;77.00;;;;;;5032376;28;20018;-75
2022/08/28 00:29:12;;;;;;;4.13;2.03;;;22.80;76.80;;;;;;5052470;28;20032;-75
2022/08/28 00:31:38;;;;;;;8.00;2.58;;;22.80;76.70;;;;;;5045032;28;20406;-75
2022/08/28 00:34:08;;;;;;;7.38;2.10;;;22.60;77.10;;;;;;5040901;28;20082;-73
2022/08/28 00:36:35;;;;;;;7.25;2.78;;;22.50;77.60;;;;;;5052192;28;20099;-76
2022/08/28 00:39:00;;;;;;;7.47;2.50;;;22.50;77.70;;;;;;5052294;28;20021;-75
2022/08/28 00:41:30;;;;;;;5.47;2.20;;;22.30;77.80;;;;;;5047595;28;20398;-75
2022/08/28 00:44:16;;;;;;;5.55;2.60;;;22.50;77.60;;;;;;5032433;28;20025;-75
2022/08/28 00:46:44;;;;;;;7.45;2.58;;;22.40;77.90;;;;;;5035843;28;20490;-76
2022/08/28 00:49:12;;;;;;;9.13;2.88;;;22.30;78.00;;;;;;5035500;28;20137;-75
2022/08/28 00:54:26;;;;;;;8.63;2.97;;;22.50;77.90;;;;;;5042618;28;20044;-75
2022/08/28 00:56:53;;;;;;;7.15;2.80;;;22.40;77.90;;;;;;5036660;28;20025;-75
2022/08/28 00:59:22;;;;;;;8.68;2.53;;;22.40;78.10;;;;;;5055423;28;20112;-76
2022/08/28 01:01:49;;;;;;;8.63;2.90;;;22.50;78.20;;;;;;5049944;28;20014;-76
2022/08/28 01:04:17;;;;;;;9.57;3.38;;;22.40;77.80;;;;;;5035166;28;20029;-75
2022/08/28 01:06:45;;;;;;;8.10;3.33;;;22.40;78.30;;;;;;5035295;28;20478;-76
2022/08/28 01:09:11;;;;;;;6.90;2.90;;;22.40;77.80;;;;;;5035500;28;20036;-76
2022/08/28 01:11:45;;;;;;;8.82;3.47;;;22.40;77.80;;;;;;5038408;28;20017;-76
2022/08/28 01:14:14;;;;;;;9.13;2.97;;;22.30;78.10;;;;;;5053508;28;20032;-75
2022/08/28 01:16:42;;;;;;;8.27;3.40;;;22.40;78.10;;;;;;5053142;28;20083;-76
2022/08/28 01:19:16;;;;;;;6.90;3.35;;;22.40;77.90;;;;;;5055221;28;20440;-76
2022/08/28 01:22:19;;;;;;;9.95;3.67;;;22.20;78.60;;;;;;5052263;28;20104;-76
2022/08/28 01:24:46;;;;;;;7.53;3.42;;;22.10;78.90;;;;;;5001804;28;20069;-73
2022/08/28 01:27:12;;;;;;;8.88;3.38;;;22.10;78.90;;;;;;5033492;28;20034;-75
2022/08/28 01:29:37;;;;;;;9.68;3.58;;;22.10;79.00;;;;;;5035145;28;20036;-76
2022/08/28 01:32:04;;;;;;;10.75;3.70;;;22.20;78.80;;;;;;5040738;28;20055;-75
2022/08/28 01:34:30;;;;;;;7.20;3.25;;;22.20;78.70;;;;;;5045201;28;20124;-75
2022/08/28 01:36:56;;;;;;;11.55;3.42;;;22.20;78.80;;;;;;5035068;28;20029;-75
2022/08/28 01:39:24;;;;;;;9.82;3.78;;;22.30;78.50;;;;;;5034836;28;20025;-76
2022/08/28 01:41:51;;;;;;;10.05;3.53;;;22.20;78.70;;;;;;5034264;28;20033;-76
2022/08/28 01:44:24;;;;;;;9.13;3.63;;;22.00;79.20;;;;;;5040411;28;20017;-75
2022/08/28 01:46:52;;;;;;;10.90;3.67;;;22.20;79.00;;;;;;5054493;28;20063;-76
2022/08/28 01:49:18;;;;;;;9.55;3.60;;;21.90;79.60;;;;;;5052871;28;20104;-74
2022/08/28 01:51:44;;;;;;;12.20;4.00;;;22.00;79.40;;;;;;5040284;28;20038;-75
2022/08/28 01:54:10;;;;;;;12.02;3.65;;;22.10;79.10;;;;;;5039548;28;20037;-75
2022/08/28 01:56:37;;;;;;;8.57;3.50;;;22.10;79.00;;;;;;5052601;28;20112;-75
2022/08/28 01:59:06;;;;;;;10.68;3.72;;;22.20;78.70;;;;;;5054339;28;20035;-75
2022/08/28 02:01:32;;;;;;;8.48;3.72;;;22.20;78.90;;;;;;5043313;28;20037;-75
2022/08/28 02:03:59;;;;;;;10.45;4.18;;;21.80;79.80;;;;;;5036900;28;20417;-75
2022/08/28 02:06:25;;;;;;;9.98;3.95;;;22.00;79.50;;;;;;5053883;28;20100;-76
2022/08/28 02:08:54;;;;;;;9.73;4.07;;;22.00;79.60;;;;;;5042953;28;20541;-75
2022/08/28 02:11:23;;;;;;;9.82;3.40;;;21.70;80.30;;;;;;5034228;28;20037;-75
2022/08/28 02:13:49;;;;;;;11.65;3.42;;;22.00;79.50;;;;;;5047288;28;20029;-76
2022/08/28 02:16:15;;;;;;;8.50;3.55;;;21.90;79.70;;;;;;5052933;28;20098;-75
2022/08/28 02:18:41;;;;;;;11.25;3.53;;;21.90;79.50;;;;;;5042436;28;20463;-75
2022/08/28 02:21:07;;;;;;;7.10;2.92;;;21.90;79.50;;;;;;5052070;28;20029;-75
2022/08/28 02:23:33;;;;;;;10.02;3.60;;;21.90;79.60;;;;;;5053900;28;20067;-73
2022/08/28 02:25:59;;;;;;;9.38;3.80;;;21.70;80.10;;;;;;5034686;28;20021;-75
2022/08/28 02:28:25;;;;;;;9.57;3.58;;;21.50;80.60;;;;;;5032633;28;20466;-75
2022/08/28 02:30:50;;;;;;;10.88;3.70;;;21.80;79.80;;;;;;5034236;28;20024;-75
2022/08/28 02:33:16;;;;;;;7.35;3.50;;;21.90;79.60;;;;;;5037210;28;20474;-72
2022/08/28 02:35:42;;;;;;;7.80;3.08;;;22.00;79.20;;;;;;5051978;28;20033;-75
2022/08/28 02:38:09;;;;;;;8.82;3.58;;;21.70;79.90;;;;;;5033723;28;20022;-74
2022/08/28 02:40:35;;;;;;;10.40;3.40;;;21.80;79.70;;;;;;5032543;28;20060;-75
2022/08/28 02:43:02;;;;;;;10.75;3.60;;;21.80;79.70;;;;;;5045164;28;20028;-76
2022/08/28 02:45:30;;;;;;;9.40;2.92;;;21.80;79.50;;;;;;5053498;28;20029;-76
2022/08/28 02:47:56;;;;;;;7.93;3.38;;;21.90;79.40;;;;;;5053520;28;20032;-75
2022/08/28 02:50:22;;;;;;;9.25;3.15;;;22.10;79.00;;;;;;5037199;28;20029;-74
2022/08/28 02:52:50;;;;;;;10.32;3.22;;;22.00;79.10;;;;;;5053363;28;20028;-76
2022/08/28 02:55:17;;;;;;;9.73;3.17;;;21.90;79.20;;;;;;5053154;28;20029;-74
2022/08/28 02:57:44;;;;;;;9.80;2.95;;;21.90;79.30;;;;;;5053559;28;20028;-75
2022/08/28 03:00:14;;;;;;;10.32;2.80;;;21.80;80.00;;;;;;5036462;28;20483;-75
2022/08/28 03:02:41;;;;;;;8.00;3.08;;;21.80;79.60;;;;;;5033427;28;20429;-76
2022/08/28 03:05:08;;;;;;;7.88;3.00;;;21.90;79.50;;;;;;5033315;28;20025;-75
2022/08/28 03:07:34;;;;;;;9.15;2.95;;;21.80;79.60;;;;;;5033110;28;20025;-76
2022/08/28 03:10:00;;;;;;;11.65;3.15;;;21.80;79.50;;;;;;5034723;28;20445;-76
2022/08/28 03:12:26;;;;;;;7.18;2.65;;;21.80;79.40;;;;;;5033420;28;20063;-75
2022/08/28 03:14:53;;;;;;;8.55;2.60;;;21.90;79.50;;;;;;5033101;28;20025;-75
2022/08/28 03:17:20;;;;;;;6.90;2.95;;;21.90;79.20;;;;;;5033313;28;20017;-76
2022/08/28 03:19:48;;;;;;;9.65;2.97;;;21.90;79.50;;;;;;5034576;28;20483;-75
2022/08/28 03:22:16;;;;;;;7.32;2.80;;;21.70;79.80;;;;;;5033042;28;20049;-75
2022/08/28 03:24:41;;;;;;;6.65;2.65;;;21.70;80.10;;;;;;5033085;28;20025;-75
2022/08/28 03:27:07;;;;;;;10.73;2.80;;;21.60;80.30;;;;;;5033054;28;20076;-75
2022/08/28 03:29:34;;;;;;;6.53;2.53;;;21.60;80.00;;;;;;5033558;28;20061;-74
2022/08/28 03:32:00;;;;;;;6.85;2.65;;;21.60;80.10;;;;;;5032982;28;20049;-75
2022/08/28 03:34:25;;;;;;;6.10;2.63;;;21.80;79.60;;;;;;5032694;28;20487;-75
2022/08/28 03:36:52;;;;;;;6.78;2.95;;;21.80;79.50;;;;;;5042767;28;20036;-75
2022/08/28 03:39:17;;;;;;;7.45;2.72;;;21.90;79.40;;;;;;5052684;28;20037;-74
2022/08/28 03:41:43;;;;;;;11.20;3.08;;;21.90;79.20;;;;;;5051071;28;20390;-75
2022/08/28 03:44:08;;;;;;;7.18;2.55;;;21.90;79.40;;;;;;5052652;28;20017;-75
2022/08/28 03:46:34;;;;;;;8.38;2.88;;;21.80;79.50;;;;;;5041575;28;20533;-75
2022/08/28 03:49:01;;;;;;;7.65;2.55;;;21.90;79.40;;;;;;5032784;28;20053;-74
2022/08/28 03:51:30;;;;;;;8.80;2.65;;;21.80;79.50;;;;;;5032408;28;20064;-76
2022/08/28 03:53:57;;;;;;;7.15;2.55;;;21.90;79.40;;;;;;5033707;28;20025;-75
2022/08/28 03:56:27;;;;;;;14.25;2.75;;;21.80;79.60;;;;;;5032561;28;20033;-76
2022/08/28 03:58:57;;;;;;;7.97;2.70;;;21.90;79.70;;;;;;5031683;28;20018;-76
2022/08/28 04:01:23;;;;;;;5.90;2.20;;;21.70;80.00;;;;;;5031395;28;20488;-75
2022/08/28 04:03:49;;;;;;;9.82;2.70;;;21.70;80.20;;;;;;5033320;28;20028;-73
2022/08/28 04:06:15;;;;;;;7.38;2.50;;;21.80;80.10;;;;;;5039246;28;20837;-74
2022/08/28 04:08:41;;;;;;;6.07;2.45;;;21.80;79.80;;;;;;5052687;28;20027;-75
2022/08/28 04:11:07;;;;;;;9.27;2.67;;;21.80;79.80;;;;;;5052685;28;20017;-75
2022/08/28 04:13:32;;;;;;;8.95;2.78;;;21.70;80.00;;;;;;5049120;28;20037;-75
2022/08/28 04:16:03;;;;;;;9.55;2.45;;;21.70;80.20;;;;;;5032471;28;20072;-75
2022/08/28 04:18:30;;;;;;;10.48;2.75;;;21.60;80.40;;;;;;5043963;28;20123;-76
2022/08/28 04:21:01;;;;;;;7.78;2.55;;;21.60;80.60;;;;;;5055325;28;20086;-74
2022/08/28 04:23:27;;;;;;;6.75;2.45;;;21.60;80.50;;;;;;5045236;28;20548;-74
2022/08/28 04:25:53;;;;;;;6.95;2.33;;;21.60;80.30;;;;;;5035953;28;20033;-75
2022/08/28 04:28:19;;;;;;;9.63;2.72;;;21.40;81.00;;;;;;5037342;28;20486;-75
2022/08/28 04:30:45;;;;;;;7.00;2.67;;;21.40;81.10;;;;;;5054363;28;20021;-75
2022/08/28 04:33:10;;;;;;;10.05;2.55;;;21.50;80.90;;;;;;5055162;28;20085;-74
2022/08/28 04:35:39;;;;;;;10.57;2.42;;;21.60;80.90;;;;;;5035988;28;20470;-76
2022/08/28 04:38:04;;;;;;;8.07;2.60;;;21.50;81.10;;;;;;5035938;28;20025;-75
2022/08/28 04:40:30;;;;;;;10.90;2.70;;;21.50;80.90;;;;;;5035403;28;20029;-75
2022/08/28 04:42:55;;;;;;;7.93;2.20;;;21.50;81.10;;;;;;5035520;28;20044;-76
2022/08/28 04:45:21;;;;;;;11.63;2.38;;;21.50;81.40;;;;;;5035813;28;20041;-75
2022/08/28 04:47:47;;;;;;;10.70;2.97;;;21.30;81.50;;;;;;5035903;28;20028;-76
2022/08/28 04:50:13;;;;;;;11.80;2.38;;;21.30;81.50;;;;;;5036540;28;20029;-75
2022/08/28 04:52:39;;;;;;;10.15;2.63;;;21.40;81.70;;;;;;5048669;28;20044;-76
2022/08/28 04:55:05;;;;;;;10.93;2.60;;;21.40;81.40;;;;;;5055482;28;20128;-75
2022/08/28 04:57:30;;;;;;;8.10;2.65;;;21.60;80.90;;;;;;5044838;28;20029;-75
2022/08/28 04:59:57;;;;;;;5.65;2.28;;;21.50;81.20;;;;;;5035710;28;20029;-75
2022/08/28 05:02:23;;;;;;;7.55;2.10;;;21.30;81.60;;;;;;5041309;28;20022;-74
2022/08/28 05:04:49;;;;;;;11.13;2.88;;;21.30;81.80;;;;;;5054886;28;20389;-75
2022/08/28 05:07:14;;;;;;;5.57;2.10;;;21.40;81.40;;;;;;5039175;28;20497;-75
2022/08/28 05:09:40;;;;;;;10.32;2.40;;;21.30;81.50;;;;;;5038008;28;20017;-73
2022/08/28 05:12:05;;;;;;;7.65;2.45;;;21.30;81.60;;;;;;5038938;28;20025;-76
2022/08/28 05:14:31;;;;;;;6.60;2.40;;;21.40;81.40;;;;;;5037484;28;20474;-75
2022/08/28 05:16:57;;;;;;;9.43;2.97;;;21.40;81.30;;;;;;5035316;28;20068;-75
2022/08/28 05:19:25;;;;;;;6.63;2.47;;;21.20;82.00;;;;;;5035002;28;20036;-75
2022/08/28 05:21:51;;;;;;;7.05;2.40;;;21.20;82.20;;;;;;5035249;28;20467;-75
2022/08/28 05:24:17;;;;;;;10.80;3.10;;;21.30;81.70;;;;;;5046052;28;20021;-75
2022/08/28 05:26:43;;;;;;;9.27;2.42;;;21.20;81.90;;;;;;5055002;28;20074;-75
2022/08/28 05:29:10;;;;;;;8.32;2.30;;;21.10;82.10;;;;;;5040899;28;20028;-73
2022/08/28 05:31:37;;;;;;;5.68;2.50;;;21.10;82.20;;;;;;5050991;28;20155;-74
2022/08/28 05:34:03;;;;;;;8.73;2.53;;;21.20;81.90;;;;;;5052168;28;20485;-75
2022/08/28 05:36:32;;;;;;;6.70;2.15;;;21.20;81.90;;;;;;5043189;28;20041;-75
2022/08/28 05:38:58;;;;;;;14.32;2.85;;;21.00;82.20;;;;;;5037261;28;20103;-73
2022/08/28 05:41:28;;;;;;;8.38;2.30;;;21.00;82.40;;;;;;5049049;28;20025;-75
2022/08/28 05:43:57;;;;;;;10.75;2.47;;;21.20;81.80;;;;;;5042880;28;20021;-75
2022/08/28 05:46:23;;;;;;;7.32;2.42;;;21.10;82.00;;;;;;5052772;28;20028;-75
2022/08/28 05:48:48;;;;;;;8.40;2.60;;;21.00;82.40;;;;;;5044305;28;20110;-75
2022/08/28 05:51:19;;;;;;;9.30;2.63;;;21.10;82.20;;;;;;5042614;28;20454;-74
2022/08/28 05:53:46;;;;;;;9.13;2.63;;;21.10;82.60;;;;;;5044554;28;20529;-75
2022/08/28 05:56:15;;;;;;;11.85;2.85;;;21.10;82.10;;;;;;5034710;28;20029;-75
2022/08/28 05:58:41;;;;;;;6.78;2.67;;;21.10;82.30;;;;;;5035847;28;20036;-75
2022/08/28 06:01:15;;;;;;;8.23;2.17;;;21.10;82.30;;;;;;5041127;28;20389;-75
2022/08/28 06:03:43;;;;;;;8.77;2.65;;;21.10;82.50;;;;;;5037050;28;20026;-74
2022/08/28 06:06:10;;;;;;;9.68;3.00;;;21.00;82.60;;;;;;5045492;28;20052;-75
2022/08/28 06:08:37;;;;;;;8.13;2.85;;;21.00;82.70;;;;;;5041891;28;20545;-73
2022/08/28 06:11:08;;;;;;;5.70;2.63;;;21.00;83.10;;;;;;5034803;28;20022;-76
2022/08/28 06:13:34;;;;;;;9.93;2.72;;;21.00;83.00;;;;;;5040887;28;20051;-76
2022/08/28 06:16:00;;;;;;;9.32;2.97;;;21.00;83.10;;;;;;5057974;28;20032;-74
2022/08/28 06:18:26;;;;;;;11.18;2.72;;;20.80;83.80;;;;;;5043659;28;20033;-74
2022/08/28 06:20:52;;;;;;;13.13;2.70;;;20.90;83.80;;;;;;5040323;28;20112;-74
2022/08/28 06:23:19;;;;;;;10.82;2.60;;;21.00;83.10;;;;;;5045397;28;20025;-74
2022/08/28 06:25:47;;;;;;;9.05;2.55;;;21.00;83.30;;;;;;5035795;28;20403;-74
2022/08/28 06:28:16;;;;;;;14.70;3.08;;;20.90;83.30;;;;;;5033878;28;20014;-74
2022/08/28 06:30:44;;;;;;;4.80;2.03;;;21.00;83.20;;;;;;5036912;28;20063;-74
2022/08/28 06:33:12;;;;;;;8.82;2.72;;;20.60;84.10;;;;;;5037404;28;20036;-74
2022/08/28 06:35:42;;;;;;;9.85;2.78;;;20.50;84.50;;;;;;5045132;28;20037;-75
2022/08/28 06:38:08;;;;;;;6.22;1.83;;;20.40;84.60;;;;;;5044481;28;20112;-74
2022/08/28 06:40:42;;;;;;;7.18;2.13;;;20.30;85.00;;;;;;5035623;28;20036;-75
2022/08/28 06:43:08;;;;;;;9.35;2.53;;;20.40;85.10;;;;;;5048239;28;20429;-74
2022/08/28 06:45:39;;;;;;;9.15;3.20;;;20.30;85.40;;;;;;5052347;28;20025;-75
2022/08/28 06:48:06;;;;;;;8.10;2.30;;;20.30;85.40;;;;;;5036897;28;20494;-76
2022/08/28 06:50:32;;;;;;;7.38;2.50;;;20.20;85.30;;;;;;5034736;28;20025;-75
2022/08/28 06:52:58;;;;;;;6.45;2.20;;;20.20;85.40;;;;;;5042709;28;20542;-74
2022/08/28 06:55:25;;;;;;;10.35;2.42;;;20.30;85.10;;;;;;5037928;28;20171;-74
2022/08/28 06:57:50;;;;;;;13.45;3.15;;;20.30;85.40;;;;;;5051165;28;20024;-75
2022/08/28 07:00:16;;;;;;;6.20;2.17;;;20.50;85.20;;;;;;5041799;28;20234;-75
2022/08/28 07:02:42;;;;;;;9.93;2.63;;;20.70;84.30;;;;;;5053007;28;20017;-76
2022/08/28 07:05:08;;;;;;;8.20;2.28;;;20.80;83.80;;;;;;5045140;28;20108;-74
2022/08/28 07:07:34;;;;;;;4.95;2.05;;;20.70;83.80;;;;;;5047986;28;20049;-76
2022/08/28 07:09:59;;;;;;;14.55;2.35;;;20.80;83.50;;;;;;5051085;28;20033;-75
2022/08/28 07:12:25;;;;;;;9.35;2.72;;;20.90;83.20;;;;;;5046444;28;20376;-76
2022/08/28 07:14:51;;;;;;;9.20;2.58;;;20.90;83.00;;;;;;5032273;28;20472;-76
2022/08/28 07:17:17;;;;;;;8.98;2.30;;;21.00;83.00;;;;;;5033481;28;20044;-75
2022/08/28 07:19:42;;;;;;;12.70;2.90;;;20.90;83.10;;;;;;5034292;28;20033;-76
2022/08/28 07:22:08;;;;;;;8.90;2.10;;;20.90;83.60;;;;;;5033050;28;20021;-76
2022/08/28 07:24:34;;;;;;;11.68;2.22;;;21.00;83.50;;;;;;5032765;28;20113;-76
2022/08/28 07:27:00;;;;;;;9.43;2.97;;;20.90;83.20;;;;;;5041334;28;20438;-76
2022/08/28 07:29:26;;;;;;;10.13;2.53;;;20.90;83.60;;;;;;5034872;28;20525;-76
2022/08/28 07:31:52;;;;;;;7.60;2.42;;;21.00;83.50;;;;;;5033171;28;20029;-76
2022/08/28 07:34:20;;;;;;;8.57;2.47;;;21.20;82.80;;;;;;5037203;28;20091;-76
2022/08/28 07:36:46;;;;;;;8.63;2.47;;;21.20;82.70;;;;;;5043714;28;20035;-75
2022/08/28 07:39:13;;;;;;;10.52;2.88;;;21.20;82.60;;;;;;5042902;28;20534;-75
2022/08/28 07:41:41;;;;;;;8.02;2.47;;;21.30;82.60;;;;;;5034022;28;20029;-75
2022/08/28 07:46:59;;;;;;;8.32;2.38;;;21.40;81.80;;;;;;5033163;28;20080;-78
2022/08/28 07:49:26;;;;;;;9.90;2.08;;;21.60;81.30;;;;;;5051737;28;20024;-85
2022/08/28 07:51:52;;;;;;;9.85;2.33;;;21.50;81.10;;;;;;5042633;28;20022;-77
2022/08/28 07:54:19;;;;;;;10.13;2.58;;;21.50;81.00;;;;;;5034917;28;20029;-78
2022/08/28 07:56:45;;;;;;;8.20;1.83;;;21.40;81.30;;;;;;5044489;28;20036;-81
2022/08/28 07:59:12;;;;;;;8.63;2.17;;;21.70;80.90;;;;;;5044338;28;20455;-76
2022/08/28 08:01:41;;;;;;;11.13;3.38;;;21.70;80.30;;;;;;5045678;28;20498;-75
2022/08/28 08:04:08;;;;;;;11.00;2.58;;;21.80;80.30;;;;;;5047836;28;20432;-75
2022/08/28 08:06:36;;;;;;;8.05;2.45;;;22.00;79.70;;;;;;5045150;28;20166;-74
2022/08/28 08:09:08;;;;;;;8.05;2.70;;;22.00;79.70;;;;;;5050671;28;20471;-70
2022/08/28 08:11:34;;;;;;;6.68;2.28;;;22.10;79.30;;;;;;5040664;28;20049;-76
2022/08/28 08:14:04;;;;;;;7.20;2.13;;;22.10;79.10;;;;;;5053723;28;20024;-75
2022/08/28 08:16:33;;;;;;;8.50;2.70;;;22.10;79.10;;;;;;5042014;28;20037;-73
2022/08/28 08:18:59;;;;;;;5.82;2.40;;;22.20;79.30;;;;;;5047720;28;20419;-75
2022/08/28 08:21:26;;;;;;;9.73;2.50;;;22.20;78.60;;;;;;5045860;28;20120;-74
2022/08/28 08:23:54;;;;;;;6.43;2.10;;;22.20;78.80;;;;;;5049916;28;20025;-71
2022/08/28 08:26:23;;;;;;;7.95;2.17;;;22.20;78.50;;;;;;5041897;28;20123;-74
2022/08/28 08:28:50;;;;;;;6.13;2.13;;;22.30;78.00;;;;;;5044057;28;20116;-75
2022/08/28 08:31:31;;;;;;;5.97;2.10;;;22.40;77.60;;;;;;5047913;28;20071;-74
2022/08/28 08:34:02;;;;;;;8.57;2.20;;;22.40;76.90;;;;;;5053901;28;20083;-72
2022/08/28 08:36:30;;;;;;;6.60;1.95;;;22.40;77.10;;;;;;5047239;28;20038;-73
2022/08/28 08:38:58;;;;;;;10.40;2.33;;;22.50;77.10;;;;;;5043339;28;20022;-72
2022/08/28 08:41:27;;;;;;;6.70;2.55;;;22.50;77.10;;;;;;5034503;28;20033;-72
2022/08/28 08:44:07;;;;;;;5.18;1.92;;;22.50;77.10;;;;;;5050829;28;20161;-73
2022/08/28 08:46:39;;;;;;;5.50;1.75;;;22.50;76.80;;;;;;5036991;28;20111;-74
2022/08/28 08:49:13;;;;;;;7.57;1.83;;;22.50;76.80;;;;;;5037173;28;20041;-73
2022/08/28 08:51:45;;;;;;;6.03;1.98;;;22.40;76.80;;;;;;5036324;28;20030;-72
2022/08/28 08:54:20;;;;;;;8.13;2.30;;;22.40;76.80;;;;;;5039486;28;20029;-75
2022/08/28 08:56:48;;;;;;;8.82;2.40;;;22.30;77.00;;;;;;5043343;28;20021;-74
2022/08/28 08:59:17;;;;;;;3.88;1.63;;;22.40;76.60;;;;;;5043421;28;20086;-74
2022/08/28 09:02:04;;;;;;;5.75;2.25;;;22.50;76.30;;;;;;5054338;28;20100;-76
2022/08/28 09:04:45;;;;;;;7.35;1.98;;;22.50;76.00;;;;;;5046955;28;20104;-74
2022/08/28 09:07:41;;;;;;;7.72;1.60;;;22.40;76.20;;;;;;5038593;28;20036;-76
2022/08/28 09:10:11;;;;;;;9.80;2.17;;;22.40;76.60;;;;;;5041692;28;20029;-74
2022/08/28 09:13:01;;;;;;;9.63;2.15;;;22.50;76.90;;;;;;5024124;28;21615;-72
2022/08/28 09:15:34;;;;;;;5.53;1.85;;;22.60;76.80;;;;;;5044096;28;20138;-72
2022/08/28 09:18:17;;;;;;;8.15;1.92;;;22.60;76.30;;;;;;5039107;28;20017;-72
2022/08/28 09:20:42;;;;;;;7.65;2.03;;;22.50;76.20;;;;;;5042935;28;20032;-71
2022/08/28 09:23:08;;;;;;;5.03;1.73;;;22.40;76.30;;;;;;5041107;28;20032;-73
2022/08/28 09:25:56;;;;;;;10.95;1.95;;;22.40;76.30;;;;;;5043613;28;20088;-72
2022/08/28 09:28:26;;;;;;;7.05;2.17;;;22.40;76.40;;;;;;5047247;28;20149;-73
2022/08/28 09:30:57;;;;;;;5.72;1.80;;;22.40;76.30;;;;;;5041990;28;20025;-72
2022/08/28 09:33:34;;;;;;;6.50;1.65;;;22.40;76.20;;;;;;5051124;28;20102;-73
2022/08/28 09:36:31;;;;;;;7.43;2.38;;;22.30;76.20;;;;;;5043030;28;20036;-73
2022/08/28 09:39:08;;;;;;;6.00;1.60;;;22.30;76.60;;;;;;5051655;28;20044;-72
2022/08/28 09:44:50;;;;;;;8.27;2.03;;;22.30;76.60;;;;;;5041503;28;20556;-72
2022/08/28 09:47:41;;;;;;;6.90;1.90;;;22.40;76.70;;;;;;5044064;28;20017;-72
2022/08/28 09:50:37;;;;;;;3.03;1.60;;;22.40;76.50;;;;;;5046631;28;20033;-73
2022/08/28 09:53:09;;;;;;;6.63;1.80;;;22.40;76.00;;;;;;5033578;28;20041;-74
2022/08/28 09:56:16;;;;;;;6.60;1.60;;;22.30;76.10;;;;;;5037424;28;20045;-70
2022/08/28 09:58:55;;;;;;;5.38;1.63;;;22.30;76.20;;;;;;5034988;28;20041;-72
2022/08/28 10:01:39;;;;;;;5.25;1.85;;;22.30;76.20;;;;;;5039571;28;20036;-72
2022/08/28 10:04:32;;;;;;;5.90;1.50;;;22.30;76.20;;;;;;5046322;28;20387;-71
2022/08/28 10:07:01;;;;;;;4.78;1.90;;;22.40;76.40;;;;;;5032707;28;20075;-71
2022/08/28 10:09:49;;;;;;;4.65;1.42;;;22.40;76.30;;;;;;5040586;28;20029;-72
2022/08/28 10:12:30;;;;;;;6.28;2.00;;;22.50;76.40;;;;;;5032007;28;20558;-72
2022/08/28 10:14:55;;;;;;;6.32;1.40;;;22.60;75.90;;;;;;5043687;28;20041;-72
2022/08/28 10:17:39;;;;;;;4.78;1.58;;;22.60;75.50;;;;;;5035028;28;20021;-71
2022/08/28 10:20:16;;;;;;;6.05;1.65;;;22.70;75.40;;;;;;5046800;28;20060;-71
2022/08/28 10:22:42;;;;;;;5.13;1.55;;;22.60;75.70;;;;;;5044610;28;20033;-70
2022/08/28 10:25:20;;;;;;;4.82;2.03;;;22.60;75.70;;;;;;5046474;28;20033;-71
2022/08/28 10:28:21;;;;;;;3.70;1.40;;;22.70;75.70;;;;;;5048338;28;20021;-70
2022/08/28 10:31:39;;;;;;;9.43;2.33;;;22.70;75.10;;;;;;5037220;28;20029;-71
2022/08/28 10:34:32;;;;;;;5.95;1.48;;;22.60;75.80;;;;;;4984480;28;20498;-70
2022/08/28 10:37:17;;;;;;;5.25;1.50;;;22.70;75.60;;;;;;5041890;28;20029;-72
2022/08/28 10:39:59;;;;;;;7.95;1.50;;;22.60;75.10;;;;;;5040310;28;20554;-71
2022/08/28 10:42:29;;;;;;;;;;;22.70;75.40;;;;;;5043623;28;20033;-72
2022/08/28 10:45:03;;;;;;;5.63;1.48;;;22.90;75.00;;;;;;5039249;28;19915;-72
2022/08/28 10:47:31;;;;;;;5.40;1.40;;;22.90;74.70;;;;;;5038059;28;20481;-72
2022/08/28 10:50:05;;;;;;;8.23;1.25;;;23.00;74.60;;;;;;5029453;28;20079;-73
2022/08/28 10:52:46;;;;;;;5.40;1.40;;;23.00;74.40;;;;;;5040791;28;20025;-70
2022/08/28 10:55:24;;;;;;;3.38;1.17;;;23.10;74.30;;;;;;5040935;28;20478;-72
2022/08/28 10:58:01;;;;;;;5.75;1.20;;;22.90;73.50;;;;;;5031143;28;20402;-72
2022/08/28 11:00:27;;;;;;;4.10;1.05;;;22.90;74.10;;;;;;5046615;28;20501;-72
2022/08/28 11:02:55;;;;;;;4.38;1.20;;;23.00;73.90;;;;;;5050351;28;20031;-73
2022/08/28 11:05:26;;;;;;;4.90;1.40;;;22.90;74.10;;;;;;5047151;28;20083;-72
2022/08/28 11:08:00;;;;;;;6.80;1.35;;;23.10;74.80;;;;;;5037745;28;20029;-71
2022/08/28 11:10:28;;;;;;;5.30;1.10;;;23.10;73.60;;;;;;5039557;28;20033;-71
2022/08/28 11:12:54;;;;;;;3.30;1.30;;;23.10;73.60;;;;;;5042724;28;20108;-69
2022/08/28 11:15:26;;;;;;;6.05;1.40;;;23.00;72.50;;;;;;5034302;28;20533;-72
2022/08/28 11:17:56;;;;;;;3.67;1.10;;;22.90;73.40;;;;;;5049076;28;20066;-70
2022/08/28 11:20:24;;;;;;;4.25;1.30;;;22.70;72.90;;;;;;5048337;28;20125;-72
2022/08/28 11:23:20;;;;;;;3.95;1.60;;;22.80;73.20;;;;;;5036299;28;20499;-73
2022/08/28 11:25:53;;;;;;;5.50;1.08;;;22.90;72.80;;;;;;5051057;28;20079;-72
2022/08/28 11:28:45;;;;;;;7.47;1.40;;;22.90;72.70;;;;;;5050177;28;20025;-71
2022/08/28 11:31:13;;;;;;;4.90;1.60;;;23.10;72.60;;;;;;5033247;28;20017;-71
2022/08/28 11:33:43;;;;;;;6.72;1.85;;;23.20;73.10;;;;;;5032226;28;20357;-65
2022/08/28 11:36:31;;;;;;;5.18;1.38;;;23.20;72.80;;;;;;5037120;28;20072;-73
2022/08/28 11:39:23;;;;;;;7.90;1.67;;;23.30;73.40;;;;;;5030101;28;20185;-71
2022/08/28 11:42:12;;;;;;;7.95;1.50;;;23.30;72.30;;;;;;5030204;28;20091;-70
2022/08/28 11:44:43;;;;;;;5.53;1.50;;;23.30;72.40;;;;;;5030792;28;20502;-72
2022/08/28 11:47:34;;;;;;;6.55;1.30;;;23.30;72.20;;;;;;5029607;28;20501;-71
2022/08/28 11:50:51;;;;;;;3.92;1.20;;;23.30;71.80;;;;;;5032702;28;20033;-71
2022/08/28 11:53:54;;;;;;;5.00;1.23;;;23.20;71.70;;;;;;4965563;28;20702;-74
2022/08/28 11:56:35;;;;;;;3.67;1.20;;;23.20;72.40;;;;;;4966097;28;20047;-74
2022/08/28 11:59:33;;;;;;;3.38;1.05;;;23.30;71.90;;;;;;5044891;28;20112;-74
2022/08/28 12:02:38;;;;;;;4.45;1.17;;;23.40;72.30;;;;;;5052237;28;20070;-75
2022/08/28 12:05:10;;;;;;;5.72;1.42;;;23.30;71.30;;;;;;5051633;28;20171;-72
2022/08/28 12:07:47;;;;;;;3.67;0.98;;;23.20;72.50;;;;;;5051485;28;20127;-76
2022/08/28 12:10:21;;;;;;;4.15;1.35;;;23.30;71.50;;;;;;5051743;28;20025;-75
2022/08/28 12:12:48;;;;;;;3.38;1.10;;;23.40;71.60;;;;;;5051325;28;20017;-75
2022/08/28 12:15:26;;;;;;;7.40;1.70;;;23.30;71.10;;;;;;5051917;28;20036;-75
2022/08/28 12:18:00;;;;;;;5.90;1.55;;;23.20;71.20;;;;;;5050445;28;20025;-74
2022/08/28 12:20:32;;;;;;;4.47;1.30;;;23.20;71.60;;;;;;5051181;28;20032;-74
2022/08/28 12:23:00;;;;;;;5.13;1.33;;;23.30;71.30;;;;;;5052194;28;20478;-75
2022/08/28 12:25:42;;;;;;;2.75;1.00;;;23.40;71.30;;;;;;5047191;28;20034;-75
2022/08/28 12:28:21;;;;;;;7.68;1.83;;;23.40;71.20;;;;;;5050652;28;20472;-71
2022/08/28 12:31:05;;;;;;;3.75;1.30;;;23.40;70.50;;;;;;5052058;28;20025;-75
2022/08/28 12:33:54;;;;;;;5.05;1.58;;;23.40;70.90;;;;;;5051819;28;20107;-73
2022/08/28 12:36:25;;;;;;;4.03;0.90;;;23.40;69.90;;;;;;5052329;28;20402;-72
2022/08/28 12:38:53;;;;;;;3.13;1.00;;;23.50;70.30;;;;;;5052542;28;20040;-73
2022/08/28 12:41:23;;;;;;;3.13;1.08;;;23.50;70.20;;;;;;5054112;28;20074;-73
2022/08/28 12:43:53;;;;;;;5.13;1.23;;;23.60;70.00;;;;;;5056132;28;20055;-74
2022/08/28 12:46:42;;;;;;;4.10;1.15;;;23.60;69.60;;;;;;5055835;28;20021;-70
2022/08/28 12:49:30;;;;;;;3.90;0.85;;;23.50;68.80;;;;;;5037964;28;20563;-73
2022/08/28 12:52:14;;;;;;;2.10;0.75;;;23.40;69.20;;;;;;5040960;28;20383;-73
2022/08/28 12:54:41;;;;;;;4.60;1.20;;;23.40;69.40;;;;;;5054749;28;20050;-73
2022/08/28 12:57:15;;;;;;;3.20;1.00;;;23.50;69.60;;;;;;5050071;28;20090;-72
2022/08/28 12:59:44;;;;;;;3.88;1.10;;;23.60;70.30;;;;;;5039545;28;20031;-73
2022/08/28 13:02:34;;;;;;;3.22;0.90;;;23.70;70.80;;;;;;5039730;28;20088;-70
2022/08/28 13:05:07;;;;;;;4.00;1.20;;;23.60;69.00;;;;;;5033830;28;20768;-70
2022/08/28 13:07:38;;;;;;;3.97;0.90;;;23.70;70.20;;;;;;5042711;28;20457;-72
2022/08/28 13:10:26;;;;;;;3.45;1.05;;;23.70;68.40;;;;;;5034918;28;20459;-74
2022/08/28 13:13:05;;;;;;;3.67;1.10;;;23.60;68.20;;;;;;5052543;28;20087;-75
2022/08/28 13:15:52;;;;;;;3.75;1.23;;;23.60;67.80;;;;;;5051949;28;20034;-70
2022/08/28 13:18:49;;;;;;;3.55;0.98;;;23.50;68.10;;;;;;5035947;28;20025;-76